Time;durP1;ratioP1;P1;durP2;ratioP2;P2;SDS_P1;SDS_P2;PMS_P1;PMS_P2;Temp;Humidity;BMP_temperature;BMP_pressure;BME280_temperature;BME280_humidity;BME280_pressure;Samples;Min_cycle;Max_cycle;Signal;HPM_P1;HPM_P2
2021/07/21 00:00:57;;;;;;;7.80;4.75;;;;;;;16.37;78.37;96834.33;1709843;82;20933;-78
2021/07/21 00:03:23;;;;;;;9.03;5.35;;;;;;;16.32;78.28;96828.91;1709717;82;21015;-78
2021/07/21 00:05:49;;;;;;;6.55;4.25;;;;;;;16.30;78.55;96830.94;1722587;82;21011;-79
2021/07/21 00:08:15;;;;;;;7.45;4.67;;;;;;;16.30;78.47;96833.55;1710515;82;20972;-78
2021/07/21 00:10:41;;;;;;;7.10;5.42;;;;;;;16.27;78.30;96829.53;1722480;82;21107;-79
2021/07/21 00:18:29;;;;;;;6.87;4.75;;;;;;;16.14;78.14;96835.61;1708960;82;20980;-79
2021/07/21 00:20:50;;;;;;;6.80;5.00;;;;;;;16.14;78.14;96835.61;1721192;82;21012;-78
2021/07/21 00:23:16;;;;;;;6.15;4.58;;;;;;;16.18;78.17;96842.05;1700722;82;20950;-79
2021/07/21 00:25:42;;;;;;;6.70;4.80;;;;;;;16.17;78.02;96841.75;1678409;83;20950;-78
2021/07/21 00:28:07;;;;;;;6.92;5.45;;;;;;;16.19;78.17;96847.59;1718998;82;20932;-78
2021/07/21 00:30:33;;;;;;;7.70;5.30;;;;;;;16.18;78.23;96843.86;1722540;82;20928;-81
2021/07/21 00:32:59;;;;;;;11.18;4.90;;;;;;;16.16;78.10;96851.13;1721966;83;21245;-77
2021/07/21 00:35:25;;;;;;;6.45;4.72;;;;;;;16.13;78.08;96854.17;1709934;82;21063;-78
2021/07/21 00:37:50;;;;;;;5.87;3.92;;;;;;;16.10;77.88;96851.42;1722646;82;20995;-77
2021/07/21 00:40:16;;;;;;;5.95;4.50;;;;;;;16.12;77.74;96850.75;1715360;83;21202;-77
2021/07/21 00:42:43;;;;;;;7.90;5.30;;;;;;;16.11;77.65;96851.76;1717056;82;20944;-78
2021/07/21 00:45:09;;;;;;;6.62;5.22;;;;;;;16.09;77.76;96851.13;1665976;85;21332;-78
2021/07/21 00:47:37;;;;;;;7.92;4.50;;;;;;;16.08;77.65;96860.51;1679271;84;20966;-77
2021/07/21 00:50:06;;;;;;;8.18;4.50;;;;;;;16.08;77.85;96854.77;1678899;84;20982;-77
2021/07/21 00:52:36;;;;;;;7.90;4.40;;;;;;;16.10;77.43;96855.36;1678695;84;20946;-77
2021/07/21 00:55:05;;;;;;;6.22;4.45;;;;;;;16.10;77.49;96855.36;1678747;84;21270;-77
2021/07/21 00:57:31;;;;;;;5.80;4.30;;;;;;;16.13;77.76;96863.34;1678659;84;20958;-77
2021/07/21 00:59:57;;;;;;;7.92;4.42;;;;;;;16.15;77.63;96856.08;1678384;84;20903;-77
2021/07/21 01:02:24;;;;;;;6.60;5.10;;;;;;;16.12;77.66;96863.85;1678517;84;20983;-77
2021/07/21 01:04:50;;;;;;;8.25;4.53;;;;;;;16.09;77.74;96849.81;1678529;84;20911;-78
2021/07/21 01:07:16;;;;;;;5.75;4.25;;;;;;;16.09;77.60;96854.26;1678465;84;21295;-77
2021/07/21 01:09:45;;;;;;;4.95;4.42;;;;;;;16.07;77.22;96845.29;1677894;84;20949;-77
2021/07/21 01:12:35;;;;;;;7.75;4.75;;;;;;;16.08;77.37;96852.65;1678604;84;20934;-77
2021/07/21 01:15:12;;;;;;;9.18;5.25;;;;;;;16.06;77.21;96851.55;1670435;84;20963;-77
2021/07/21 01:17:54;;;;;;;6.80;5.03;;;;;;;16.04;77.40;96846.20;1678459;84;21402;-78
2021/07/21 01:20:50;;;;;;;8.03;4.53;;;;;;;16.01;77.45;96848.73;1678474;84;21005;-77
2021/07/21 01:23:31;;;;;;;6.80;4.95;;;;;;;15.99;77.27;96848.14;1678547;84;20983;-77
2021/07/21 01:26:15;;;;;;;8.90;5.28;;;;;;;15.98;76.76;96845.73;1678984;84;21390;-78
2021/07/21 01:28:44;;;;;;;8.00;4.78;;;;;;;15.97;76.68;96850.16;1679306;84;20935;-77
2021/07/21 01:31:15;;;;;;;6.55;4.95;;;;;;;15.99;76.91;96849.95;1653737;85;20962;-77
2021/07/21 01:33:41;;;;;;;7.43;5.07;;;;;;;15.96;76.90;96843.81;1678050;84;20961;-77
2021/07/21 01:36:25;;;;;;;8.10;5.12;;;;;;;15.95;77.02;96845.63;1681906;84;21697;-78
2021/07/21 01:38:56;;;;;;;7.37;4.28;;;;;;;15.94;76.62;96843.19;1673287;84;21017;-78
2021/07/21 01:41:28;;;;;;;6.47;4.80;;;;;;;15.94;76.52;96847.92;1646213;85;20934;-77
2021/07/21 01:44:03;;;;;;;6.37;4.70;;;;;;;15.93;76.54;96835.83;1688352;82;21113;-77
2021/07/21 01:46:29;;;;;;;6.00;4.67;;;;;;;15.95;76.25;96852.19;1722756;82;20948;-78
2021/07/21 01:48:57;;;;;;;8.48;5.12;;;;;;;15.97;76.13;96853.29;1720303;82;20956;-77
2021/07/21 01:51:24;;;;;;;8.08;5.80;;;;;;;15.96;76.19;96849.06;1715450;82;20930;-77
2021/07/21 01:53:52;;;;;;;7.65;4.87;;;;;;;15.95;76.12;96853.50;1704350;82;21026;-77
2021/07/21 01:56:20;;;;;;;6.70;4.20;;;;;;;15.95;76.40;96848.77;1689787;84;21073;-77
2021/07/21 01:58:45;;;;;;;11.05;4.65;;;;;;;15.95;76.46;96850.07;1709096;82;21408;-78
2021/07/21 02:01:11;;;;;;;6.37;4.37;;;;;;;15.96;76.51;96853.80;1703748;82;20967;-77
2021/07/21 02:03:41;;;;;;;12.45;5.28;;;;;;;15.99;76.37;96853.89;1722443;82;20952;-77
2021/07/21 02:06:08;;;;;;;6.47;4.80;;;;;;;15.99;76.10;96851.27;1691836;83;20987;-77
2021/07/21 02:08:34;;;;;;;5.40;4.85;;;;;;;15.96;76.10;96856.42;1713862;82;21265;-77
2021/07/21 02:11:03;;;;;;;7.33;4.87;;;;;;;15.92;76.00;96855.19;1722386;82;20924;-77
2021/07/21 02:13:28;;;;;;;7.33;4.40;;;;;;;15.88;76.06;96852.68;1715769;82;20971;-77
2021/07/21 02:15:54;;;;;;;5.20;4.05;;;;;;;15.86;76.02;96850.27;1705788;82;21002;-78
2021/07/21 02:18:20;;;;;;;6.95;4.42;;;;;;;15.89;76.19;96854.29;1688872;84;20960;-77
2021/07/21 02:20:46;;;;;;;10.45;5.17;;;;;;;15.90;76.31;96845.42;1693350;82;21297;-77
2021/07/21 02:23:14;;;;;;;6.28;4.55;;;;;;;15.89;76.42;96852.98;1701953;82;20972;-77
2021/07/21 02:25:40;;;;;;;7.62;4.83;;;;;;;15.84;76.32;96852.29;1710781;83;20952;-78
2021/07/21 02:28:06;;;;;;;8.60;5.50;;;;;;;15.83;76.37;96851.19;1699301;82;20999;-78
2021/07/21 02:30:31;;;;;;;6.72;4.28;;;;;;;15.82;76.21;96856.93;1688203;84;21254;-77
2021/07/21 02:33:12;;;;;;;8.55;4.75;;;;;;;15.81;75.94;96852.70;1683244;84;20928;-77
2021/07/21 02:35:38;;;;;;;6.35;5.15;;;;;;;15.85;75.74;96850.47;1688916;84;21015;-77
2021/07/21 02:38:04;;;;;;;8.48;5.03;;;;;;;15.84;75.16;96854.91;1713744;82;21292;-77
2021/07/21 02:40:30;;;;;;;8.40;5.22;;;;;;;15.80;75.50;96851.09;1706491;82;21411;-78
2021/07/21 02:42:56;;;;;;;7.30;4.55;;;;;;;15.77;75.55;96858.53;1708182;82;21029;-77
2021/07/21 02:45:22;;;;;;;6.08;4.35;;;;;;;15.76;75.59;96864.77;1690622;84;21059;-77
2021/07/21 02:47:48;;;;;;;6.33;4.12;;;;;;;15.75;75.65;96865.78;1715088;82;21324;-78
2021/07/21 02:50:16;;;;;;;6.17;4.33;;;;;;;15.74;75.61;96867.60;1709053;82;21010;-77
2021/07/21 02:53:02;;;;;;;5.42;4.55;;;;;;;15.74;75.69;96872.03;1713441;82;20963;-77
2021/07/21 02:55:54;;;;;;;8.88;4.70;;;;;;;15.73;75.54;96873.05;1678277;82;20959;-77
2021/07/21 02:58:54;;;;;;;6.78;5.22;;;;;;;15.74;75.57;96878.08;1718373;82;20960;-78
2021/07/21 03:01:21;;;;;;;8.68;5.90;;;;;;;15.71;74.26;96876.37;1709826;82;20976;-77
2021/07/21 03:03:47;;;;;;;7.65;5.30;;;;;;;15.66;74.06;96876.18;1690409;83;21356;-78
2021/07/21 03:06:12;;;;;;;8.03;5.72;;;;;;;15.66;73.92;96885.34;1720294;82;20981;-78
2021/07/21 03:08:38;;;;;;;6.67;5.55;;;;;;;15.64;73.78;96888.68;1710107;82;20997;-78
2021/07/21 03:11:04;;;;;;;10.32;5.60;;;;;;;15.64;73.76;96886.86;1698490;82;21319;-78
2021/07/21 03:13:52;;;;;;;9.13;5.62;;;;;;;15.67;73.41;96886.45;1688647;84;20963;-77
2021/07/21 03:16:24;;;;;;;7.35;5.55;;;;;;;15.68;73.41;96895.12;1716629;82;20983;-78
2021/07/21 03:18:52;;;;;;;7.45;5.10;;;;;;;15.70;73.58;96897.84;1708613;82;21015;-78
2021/07/21 03:21:19;;;;;;;7.58;5.45;;;;;;;15.72;73.95;96897.63;1672187;83;21123;-78
2021/07/21 03:23:45;;;;;;;9.70;5.80;;;;;;;15.71;73.98;96904.69;1714577;82;21543;-78
2021/07/21 03:26:10;;;;;;;9.08;5.95;;;;;;;15.70;73.45;96903.58;1700543;82;20979;-78
2021/07/21 03:28:36;;;;;;;9.18;5.08;;;;;;;15.67;73.10;96907.92;1719294;82;21000;-78
2021/07/21 03:31:02;;;;;;;9.08;5.30;;;;;;;15.67;72.91;96907.92;1703556;82;21289;-78
2021/07/21 03:33:28;;;;;;;8.90;5.90;;;;;;;15.66;72.90;96910.23;1707480;82;20991;-79
2021/07/21 03:36:01;;;;;;;7.78;4.78;;;;;;;15.68;73.46;96906.91;1678305;83;21291;-78
2021/07/21 03:38:26;;;;;;;9.93;5.47;;;;;;;15.72;73.76;96906.80;1709544;82;21201;-77
2021/07/21 03:40:52;;;;;;;6.87;5.22;;;;;;;15.71;73.83;96905.19;1705304;82;21035;-78
2021/07/21 03:43:18;;;;;;;7.03;5.90;;;;;;;15.67;73.88;96909.23;1700731;82;21039;-78
2021/07/21 03:45:44;;;;;;;7.67;5.03;;;;;;;15.65;73.36;96912.05;1721702;82;21076;-78
2021/07/21 03:48:09;;;;;;;6.45;5.12;;;;;;;15.65;73.32;96909.43;1709764;82;20952;-78
2021/07/21 03:50:35;;;;;;;8.78;5.50;;;;;;;15.64;73.47;96914.87;1722155;82;20889;-78
2021/07/21 03:53:01;;;;;;;8.13;4.90;;;;;;;15.60;72.90;96903.45;1721791;82;20976;-78
2021/07/21 03:55:27;;;;;;;7.03;4.58;;;;;;;15.57;73.12;96906.95;1680680;84;20983;-78
2021/07/21 03:57:53;;;;;;;7.55;4.58;;;;;;;15.58;73.59;96906.76;1715924;82;20932;-78
2021/07/21 04:00:21;;;;;;;10.30;4.72;;;;;;;15.58;73.60;96908.06;1715322;82;21027;-78
2021/07/21 04:02:54;;;;;;;6.22;3.92;;;;;;;15.58;73.94;96908.57;1701905;82;21003;-78
2021/07/21 04:05:20;;;;;;;7.60;5.12;;;;;;;15.58;73.78;96905.95;1722728;82;21059;-78
2021/07/21 04:07:45;;;;;;;6.62;4.83;;;;;;;15.61;73.00;96910.31;1719775;82;20940;-78
2021/07/21 04:10:12;;;;;;;7.33;5.17;;;;;;;15.67;73.04;96910.03;1718798;82;21292;-78
2021/07/21 04:12:41;;;;;;;7.78;4.92;;;;;;;15.72;73.24;96921.21;1703516;82;20974;-78
2021/07/21 04:15:08;;;;;;;7.70;5.62;;;;;;;15.73;72.68;96921.52;1716609;82;20951;-79
2021/07/21 04:17:33;;;;;;;6.58;5.30;;;;;;;15.74;72.01;96920.50;1723605;82;20976;-79
2021/07/21 04:20:07;;;;;;;8.43;5.25;;;;;;;15.70;72.42;96923.23;1720107;82;21305;-79
2021/07/21 04:22:33;;;;;;;6.50;4.80;;;;;;;15.70;72.59;96926.66;1677803;84;20968;-79
2021/07/21 04:24:59;;;;;;;5.20;3.95;;;;;;;15.69;72.53;96923.73;1720648;82;20932;-79
2021/07/21 04:27:25;;;;;;;7.97;4.90;;;;;;;15.71;72.65;96922.22;1719976;82;20951;-79
2021/07/21 04:29:51;;;;;;;8.70;5.28;;;;;;;15.76;72.43;96922.41;1682197;84;21308;-78
2021/07/21 04:32:21;;;;;;;8.48;5.47;;;;;;;15.82;72.53;96926.37;1711987;82;20931;-79
2021/07/21 04:34:48;;;;;;;6.80;5.00;;;;;;;15.87;72.21;96928.38;1661868;83;21048;-79
2021/07/21 04:37:14;;;;;;;6.20;4.85;;;;;;;15.90;72.44;96931.90;1703557;82;21305;-78
2021/07/21 04:39:39;;;;;;;9.03;5.65;;;;;;;15.92;72.14;96936.43;1681147;83;20980;-78
2021/07/21 04:42:06;;;;;;;6.47;4.85;;;;;;;15.93;72.47;96938.55;1719163;82;20994;-78
2021/07/21 04:44:34;;;;;;;7.90;4.15;;;;;;;15.92;72.19;96932.50;1703874;82;21059;-78
2021/07/21 04:47:00;;;;;;;5.53;4.50;;;;;;;15.97;72.03;96937.96;1691108;83;21044;-79
2021/07/21 04:49:26;;;;;;;7.20;5.45;;;;;;;16.02;72.12;96944.70;1709291;82;20965;-79
2021/07/21 04:51:55;;;;;;;7.80;4.78;;;;;;;16.07;72.08;96938.34;1675732;84;20944;-79
2021/07/21 04:54:21;;;;;;;6.58;5.12;;;;;;;16.10;71.39;96939.24;1704012;82;20959;-79
2021/07/21 04:56:47;;;;;;;7.65;5.55;;;;;;;16.12;71.36;96937.25;1719498;82;20930;-78
2021/07/21 04:59:13;;;;;;;7.55;5.35;;;;;;;16.15;71.16;96943.91;1710179;82;20964;-78
2021/07/21 05:01:38;;;;;;;7.53;4.83;;;;;;;16.09;70.46;96935.02;1711476;82;21217;-78
2021/07/21 05:04:06;;;;;;;8.10;5.10;;;;;;;16.07;70.61;96938.84;1703410;82;20999;-78
2021/07/21 05:06:32;;;;;;;6.65;4.53;;;;;;;16.06;70.86;96951.16;1690116;83;20940;-78
2021/07/21 05:08:58;;;;;;;5.67;4.28;;;;;;;16.08;70.86;96953.56;1709956;82;20940;-79
2021/07/21 05:11:24;;;;;;;9.95;4.60;;;;;;;16.05;70.88;96957.41;1708215;82;20987;-78
2021/07/21 05:13:49;;;;;;;6.47;4.45;;;;;;;16.09;71.26;96952.05;1716589;82;21253;-79
2021/07/21 05:16:15;;;;;;;8.13;5.45;;;;;;;16.12;71.23;96960.84;1689707;82;20999;-78
2021/07/21 05:18:42;;;;;;;6.50;4.80;;;;;;;16.09;70.61;96954.67;1714576;82;20921;-78
2021/07/21 05:21:08;;;;;;;7.83;5.25;;;;;;;16.07;70.68;96956.69;1697013;82;21031;-79
2021/07/21 05:23:34;;;;;;;6.08;4.55;;;;;;;16.07;71.10;96963.75;1687264;84;20924;-78
2021/07/21 05:26:00;;;;;;;6.83;5.10;;;;;;;16.04;70.49;96960.23;1689476;84;21321;-78
2021/07/21 05:28:26;;;;;;;8.90;5.17;;;;;;;16.04;70.14;96960.23;1715121;82;20979;-79
2021/07/21 05:30:53;;;;;;;8.33;5.05;;;;;;;16.07;70.35;96963.25;1708999;82;20951;-79
2021/07/21 05:33:19;;;;;;;6.85;4.78;;;;;;;16.10;70.27;96964.66;1719445;82;20978;-79
2021/07/21 05:35:44;;;;;;;8.90;5.47;;;;;;;16.12;70.14;96966.09;1701108;82;21016;-79
2021/07/21 05:38:10;;;;;;;7.17;5.28;;;;;;;16.17;70.23;96968.91;1718642;82;21023;-78
2021/07/21 05:40:36;;;;;;;6.53;4.67;;;;;;;16.20;69.71;96963.25;1713694;82;21015;-79
2021/07/21 05:43:03;;;;;;;7.25;4.90;;;;;;;16.24;69.51;96962.84;1719447;82;20954;-79
2021/07/21 05:45:29;;;;;;;8.80;5.62;;;;;;;16.23;69.37;96957.30;1718705;82;21416;-79
2021/07/21 05:47:55;;;;;;;5.92;4.45;;;;;;;16.20;69.32;96961.94;1666237;85;20951;-79
2021/07/21 05:50:21;;;;;;;6.90;5.10;;;;;;;16.18;69.33;96959.22;1713808;82;20885;-79
2021/07/21 05:52:46;;;;;;;8.68;5.75;;;;;;;16.17;69.75;96962.85;1689278;84;21001;-78
2021/07/21 05:55:13;;;;;;;9.90;5.53;;;;;;;16.17;70.21;96961.55;1703642;83;21921;-79
2021/07/21 05:57:39;;;;;;;7.65;5.50;;;;;;;16.15;69.53;96964.88;1706900;83;20941;-78
2021/07/21 06:00:08;;;;;;;7.15;5.50;;;;;;;16.12;69.35;96967.91;1712734;82;21305;-78
2021/07/21 06:02:34;;;;;;;8.45;5.60;;;;;;;16.07;69.22;96972.42;1679408;84;20975;-79
2021/07/21 06:05:00;;;;;;;7.62;5.12;;;;;;;16.08;69.19;96971.91;1705247;83;20999;-79
2021/07/21 06:07:25;;;;;;;6.35;4.97;;;;;;;16.06;68.73;96974.74;1673409;84;20971;-79
2021/07/21 06:09:51;;;;;;;7.40;5.22;;;;;;;16.02;68.90;96978.78;1722950;82;20969;-78
2021/07/21 06:12:17;;;;;;;8.90;5.40;;;;;;;16.04;69.03;96976.77;1709753;82;21031;-79
2021/07/21 06:14:43;;;;;;;8.83;5.03;;;;;;;16.05;69.14;96984.92;1684274;84;20996;-79
2021/07/21 06:17:09;;;;;;;6.83;6.00;;;;;;;16.07;69.03;96983.41;1693215;84;21324;-79
2021/07/21 06:19:35;;;;;;;8.48;5.55;;;;;;;16.06;69.36;96983.92;1711616;83;20989;-78
2021/07/21 06:22:02;;;;;;;8.55;5.65;;;;;;;16.08;69.44;96985.02;1675368;84;21496;-79
2021/07/21 06:24:28;;;;;;;8.43;4.90;;;;;;;16.10;68.90;96983.00;1752967;80;20907;-78
2021/07/21 06:26:54;;;;;;;8.50;6.05;;;;;;;16.12;68.97;96985.75;1756469;80;21222;-78
2021/07/21 06:29:20;;;;;;;7.33;5.35;;;;;;;16.17;69.05;96989.87;1753695;80;20920;-78
2021/07/21 06:31:46;;;;;;;6.95;5.03;;;;;;;16.25;68.68;96994.09;1760163;80;20943;-77
2021/07/21 06:34:12;;;;;;;9.10;5.70;;;;;;;16.26;68.54;96991.78;1734889;82;21276;-78
2021/07/21 06:36:37;;;;;;;7.58;5.30;;;;;;;16.27;68.23;96988.65;1758583;80;21003;-78
2021/07/21 06:39:03;;;;;;;10.80;5.75;;;;;;;16.25;68.19;96991.48;1758290;80;21058;-78
2021/07/21 06:41:30;;;;;;;7.05;4.97;;;;;;;16.21;68.38;96992.39;1752220;80;21320;-78
2021/07/21 06:43:59;;;;;;;8.95;5.53;;;;;;;16.26;68.84;96997.02;1757894;80;21003;-78
2021/07/21 06:46:23;;;;;;;9.93;5.58;;;;;;;16.34;69.18;96995.52;1755443;80;21000;-78
2021/07/21 06:48:49;;;;;;;8.63;5.97;;;;;;;16.41;68.96;96996.31;1751060;80;21015;-77
2021/07/21 06:51:15;;;;;;;6.58;5.40;;;;;;;16.51;69.34;96995.40;1747656;80;20939;-78
2021/07/21 06:53:40;;;;;;;8.23;5.87;;;;;;;16.61;69.57;96997.62;1722583;82;20920;-78
2021/07/21 06:56:06;;;;;;;7.42;5.80;;;;;;;16.70;69.35;96997.72;1754689;80;20963;-78
2021/07/21 06:58:32;;;;;;;8.08;5.53;;;;;;;16.75;69.11;96993.96;1746088;80;20923;-78
2021/07/21 07:00:58;;;;;;;7.42;5.03;;;;;;;16.80;69.53;96998.11;1751905;80;20988;-78
2021/07/21 07:03:24;;;;;;;6.35;5.40;;;;;;;16.87;69.87;96994.14;1752334;80;21031;-78
2021/07/21 07:05:49;;;;;;;5.97;4.95;;;;;;;16.95;69.51;96999.69;1746760;80;20991;-79
2021/07/21 07:08:15;;;;;;;7.10;5.47;;;;;;;17.05;69.39;96990.86;1715942;82;20935;-79
2021/07/21 07:10:41;;;;;;;8.73;6.85;;;;;;;17.16;69.02;96998.60;1751816;80;21023;-78
2021/07/21 07:13:07;;;;;;;10.45;7.10;;;;;;;17.21;68.86;96998.77;1750983;80;21317;-79
2021/07/21 07:15:33;;;;;;;13.90;12.50;;;;;;;17.24;68.51;96999.66;1755520;80;21059;-78
2021/07/21 07:17:59;;;;;;;16.37;14.98;;;;;;;17.29;68.66;96999.87;1751861;80;21290;-78
2021/07/21 07:20:25;;;;;;;10.05;9.00;;;;;;;17.31;68.29;97003.09;1753673;80;21046;-78
2021/07/21 07:22:51;;;;;;;7.12;6.42;;;;;;;17.40;69.13;97003.94;1752168;80;20972;-78
2021/07/21 07:25:17;;;;;;;8.13;5.58;;;;;;;17.54;69.26;97006.50;1755119;80;20911;-78
2021/07/21 07:27:42;;;;;;;7.58;4.83;;;;;;;17.60;68.64;97009.62;1749674;80;20958;-78
2021/07/21 07:30:11;;;;;;;8.30;5.42;;;;;;;17.69;69.56;97005.23;1752412;80;20920;-79
2021/07/21 07:32:37;;;;;;;9.90;6.62;;;;;;;17.75;68.77;97008.86;1753690;80;20951;-78
2021/07/21 07:35:04;;;;;;;11.10;10.00;;;;;;;17.80;68.06;97013.48;1750022;80;20982;-78
2021/07/21 07:37:30;;;;;;;14.03;10.05;;;;;;;17.81;68.21;97011.14;1751879;80;20991;-78
2021/07/21 07:39:56;;;;;;;8.15;7.03;;;;;;;17.86;68.03;97008.67;1754791;80;20908;-79
2021/07/21 07:42:21;;;;;;;10.95;5.75;;;;;;;17.93;68.96;97012.09;1753761;80;21214;-79
2021/07/21 07:44:47;;;;;;;7.45;6.03;;;;;;;17.97;68.13;97015.89;1716532;82;20956;-78
2021/07/21 07:47:13;;;;;;;9.78;6.72;;;;;;;18.02;68.48;97019.19;1722678;83;21007;-78
2021/07/21 07:49:40;;;;;;;10.58;7.20;;;;;;;18.07;68.48;97016.75;1693644;84;21014;-79
2021/07/21 07:52:06;;;;;;;12.03;9.23;;;;;;;18.07;68.87;97018.87;1691616;84;20975;-79
2021/07/21 07:54:32;;;;;;;10.28;9.13;;;;;;;18.15;68.24;97020.42;1719163;83;21007;-78
2021/07/21 07:56:57;;;;;;;9.45;6.20;;;;;;;18.31;68.81;97023.84;1693905;84;20932;-78
2021/07/21 07:59:24;;;;;;;7.30;5.70;;;;;;;18.48;68.28;97020.95;1719575;83;21237;-79
2021/07/21 08:01:49;;;;;;;8.05;5.50;;;;;;;18.60;69.54;97027.64;1685576;84;21012;-78
2021/07/21 08:04:16;;;;;;;8.58;6.00;;;;;;;18.62;69.07;97024.79;1694078;84;21003;-79
2021/07/21 08:06:41;;;;;;;9.93;6.50;;;;;;;18.63;68.13;97025.09;1717752;82;20991;-78
2021/07/21 08:09:13;;;;;;;7.60;5.55;;;;;;;18.69;68.03;97019.78;1681741;84;21050;-79
2021/07/21 08:11:45;;;;;;;10.10;6.15;;;;;;;18.69;67.84;97025.04;1683408;84;20980;-78
2021/07/21 08:14:14;;;;;;;7.78;6.15;;;;;;;18.71;67.08;97022.19;1722255;82;20963;-78
2021/07/21 08:16:42;;;;;;;9.85;6.60;;;;;;;18.76;67.20;97024.48;1720347;82;21027;-79
2021/07/21 08:19:07;;;;;;;6.05;4.95;;;;;;;18.70;67.44;97033.23;1683878;84;21047;-79
2021/07/21 08:21:33;;;;;;;7.47;5.40;;;;;;;18.63;67.12;97032.98;1705132;83;21369;-79
2021/07/21 08:23:59;;;;;;;11.38;5.75;;;;;;;18.63;67.37;97030.34;1702948;82;21063;-79
2021/07/21 08:26:25;;;;;;;8.80;5.65;;;;;;;18.70;67.44;97038.50;1687437;84;21019;-78
2021/07/21 08:28:51;;;;;;;14.47;10.63;;;;;;;18.76;67.16;97036.33;1715430;82;20919;-77
2021/07/21 08:31:17;;;;;;;11.85;9.60;;;;;;;18.75;67.54;97040.50;1718340;83;20959;-77
2021/07/21 08:33:44;;;;;;;7.60;6.00;;;;;;;18.75;67.61;97040.50;1692791;82;21015;-77
2021/07/21 08:36:11;;;;;;;6.08;5.47;;;;;;;18.77;67.74;97037.14;1722616;82;20951;-77
2021/07/21 08:38:38;;;;;;;6.60;5.87;;;;;;;18.97;68.16;97034.30;1718533;83;20987;-77
2021/07/21 08:41:04;;;;;;;7.90;6.35;;;;;;;19.22;66.95;97034.24;1687110;83;21233;-76
2021/07/21 08:43:30;;;;;;;9.63;7.67;;;;;;;19.44;66.46;97032.75;1704604;83;21340;-77
2021/07/21 08:45:57;;;;;;;6.83;5.80;;;;;;;19.50;66.92;97038.44;1718292;82;21032;-77
2021/07/21 08:48:23;;;;;;;7.20;5.37;;;;;;;19.48;66.42;97036.55;1680954;84;21025;-78
2021/07/21 08:50:48;;;;;;;5.97;4.95;;;;;;;19.41;66.83;97045.06;1696568;82;22042;-78
2021/07/21 08:53:15;;;;;;;8.05;5.45;;;;;;;19.48;66.87;97039.18;1710495;82;21291;-78
2021/07/21 08:55:40;;;;;;;8.38;6.17;;;;;;;19.77;66.50;97041.58;1712764;82;20928;-78
2021/07/21 08:58:06;;;;;;;9.05;8.15;;;;;;;19.83;66.23;97046.46;1707383;82;20914;-78
2021/07/21 09:00:35;;;;;;;11.93;10.65;;;;;;;19.86;66.06;97047.36;1708783;82;21248;-78
2021/07/21 09:03:02;;;;;;;8.88;6.17;;;;;;;19.87;64.97;97052.41;1704924;82;20956;-78
2021/07/21 09:05:28;;;;;;;9.35;5.72;;;;;;;19.74;64.60;97051.26;1679457;83;20951;-78
2021/07/21 09:07:54;;;;;;;10.30;5.20;;;;;;;19.69;65.25;97051.94;1711049;82;21052;-78
2021/07/21 09:10:20;;;;;;;7.30;5.55;;;;;;;19.84;64.96;97048.07;1682104;83;21288;-78
2021/07/21 09:12:49;;;;;;;7.00;5.50;;;;;;;19.97;63.98;97046.57;1721368;82;20948;-77
2021/07/21 09:15:18;;;;;;;9.05;5.83;;;;;;;20.08;63.07;97047.12;1708943;82;21027;-77
2021/07/21 09:18:07;;;;;;;6.75;5.40;;;;;;;20.08;63.76;97044.49;1714269;82;20960;-78
2021/07/21 09:20:37;;;;;;;9.00;5.45;;;;;;;20.31;64.27;97039.25;1705119;82;21062;-77
2021/07/21 09:23:02;;;;;;;7.45;5.67;;;;;;;20.45;63.21;97045.67;1721612;82;20969;-78
2021/07/21 09:25:30;;;;;;;8.55;6.47;;;;;;;20.59;63.39;97045.75;1718792;82;20921;-78
2021/07/21 09:27:59;;;;;;;8.23;5.47;;;;;;;20.77;64.01;97046.95;1713378;82;21293;-77
2021/07/21 09:30:28;;;;;;;7.40;5.58;;;;;;;20.83;63.33;97053.17;1722380;82;21000;-78
2021/07/21 09:33:04;;;;;;;8.13;5.97;;;;;;;20.77;62.39;97054.88;1712554;82;20939;-78
2021/07/21 09:35:37;;;;;;;7.70;5.67;;;;;;;20.71;62.07;97045.77;1705680;82;20987;-78
2021/07/21 09:38:07;;;;;;;9.68;7.47;;;;;;;20.66;62.83;97055.19;1722496;82;21302;-79
2021/07/21 09:40:36;;;;;;;7.70;5.85;;;;;;;20.71;62.98;97054.48;1714848;82;20975;-79
2021/07/21 09:43:02;;;;;;;8.93;6.03;;;;;;;20.70;63.77;97044.16;1680078;84;21119;-78
2021/07/21 09:45:28;;;;;;;9.53;6.50;;;;;;;20.70;63.59;97049.44;1708249;83;20964;-78
2021/07/21 09:47:58;;;;;;;8.83;5.90;;;;;;;20.74;63.25;97048.74;1670103;85;21296;-78
2021/07/21 09:50:29;;;;;;;6.62;5.40;;;;;;;21.00;62.52;97038.23;1700673;83;21317;-78
2021/07/21 09:53:04;;;;;;;8.28;6.00;;;;;;;21.02;62.89;97043.28;1707786;82;20979;-78
2021/07/21 09:55:31;;;;;;;7.03;5.55;;;;;;;20.88;62.48;97044.84;1710105;82;21053;-79
2021/07/21 09:58:23;;;;;;;7.65;5.15;;;;;;;20.77;63.19;97045.64;1710181;82;20994;-81
2021/07/21 10:00:47;;;;;;;6.00;4.92;;;;;;;20.98;62.41;97041.08;1703054;82;21066;-78
2021/07/21 10:03:20;;;;;;;7.78;5.72;;;;;;;21.16;62.06;97040.69;1694094;83;20988;-78
2021/07/21 10:06:00;;;;;;;7.70;5.50;;;;;;;21.35;61.67;97034.75;1695431;83;20944;-78
2021/07/21 10:08:43;;;;;;;8.93;5.60;;;;;;;21.42;61.28;97030.92;1706240;82;21007;-78
2021/07/21 10:11:34;;;;;;;7.37;4.90;;;;;;;21.54;61.57;97034.86;1684633;84;21026;-80
2021/07/21 10:14:08;;;;;;;9.93;5.28;;;;;;;21.75;61.24;97030.75;1683513;84;21233;-79
2021/07/21 10:16:52;;;;;;;6.65;3.90;;;;;;;21.93;59.33;97025.26;1710599;82;21039;-80
2021/07/21 10:19:27;;;;;;;6.72;4.78;;;;;;;22.04;59.48;97030.22;1704184;82;20990;-79
2021/07/21 10:21:59;;;;;;;6.10;5.42;;;;;;;;;;1677090;84;21336;-79
2021/07/21 10:24:26;;;;;;;;;;;;;;;22.27;56.63;97031.94;1688004;83;21044;-80
2021/07/21 10:26:53;;;;;;;8.10;4.53;;;;;;;22.35;56.55;97028.91;1684919;83;20100;-78
2021/07/21 10:29:19;;;;;;;5.10;4.08;;;;;;;22.50;56.49;97026.51;1694103;83;21262;-79
2021/07/21 10:31:45;;;;;;;6.03;4.05;;;;;;;22.64;55.96;97038.38;1711850;82;20987;-79
2021/07/21 10:34:11;;;;;;;6.28;3.80;;;;;;;22.81;56.86;97026.44;1708637;82;20951;-79
2021/07/21 10:36:37;;;;;;;7.22;4.42;;;;;;;22.88;55.12;97028.41;1709412;82;21368;-80
2021/07/21 10:39:10;;;;;;;6.45;4.60;;;;;;;22.88;55.12;97028.41;1708074;82;20991;-78
2021/07/21 10:41:36;;;;;;;7.90;6.08;;;;;;;22.90;54.10;97034.79;1708388;82;20955;-78
2021/07/21 10:44:02;;;;;;;8.45;5.15;;;;;;;22.87;53.54;97024.69;1703417;82;20943;-78
2021/07/21 10:46:36;;;;;;;6.05;5.05;;;;;;;22.96;54.41;97020.58;1713026;83;21091;-78
2021/07/21 10:49:24;;;;;;;6.08;4.33;;;;;;;23.09;53.97;97012.77;1708284;82;20935;-79
2021/07/21 11:00:42;;;;;;;7.92;6.05;;;;;;;21.86;55.96;97025.94;1781355;79;20920;-79
2021/07/21 11:03:28;;;;;;;7.42;5.75;;;;;;;21.54;56.36;97036.19;1757728;80;20933;-79
2021/07/21 11:06:01;;;;;;;7.83;4.97;;;;;;;21.32;56.64;97033.39;1788248;79;21324;-79
2021/07/21 11:08:27;;;;;;;6.47;4.85;;;;;;;21.23;56.14;97028.13;1786034;79;20913;-79
2021/07/21 11:10:55;;;;;;;7.05;5.50;;;;;;;21.19;58.05;97036.25;1754148;79;20970;-79
2021/07/21 11:13:37;;;;;;;5.53;4.87;;;;;;;21.19;58.00;97033.09;1772688;80;20956;-80
2021/07/21 11:16:02;;;;;;;6.80;4.90;;;;;;;21.28;57.25;97035.67;1776036;79;20904;-79
2021/07/21 11:18:41;;;;;;;6.47;4.33;;;;;;;21.56;57.66;97027.50;1773155;79;21339;-79
2021/07/21 11:21:14;;;;;;;6.75;4.75;;;;;;;21.62;57.52;97025.22;1759202;80;21304;-79
2021/07/21 11:23:57;;;;;;;6.97;4.08;;;;;;;21.75;56.66;97029.43;1779824;79;21058;-78
2021/07/21 11:26:39;;;;;;;5.97;4.42;;;;;;;21.83;56.29;97026.42;1783774;79;21244;-78
2021/07/21 11:29:33;;;;;;;6.47;4.28;;;;;;;22.02;55.66;97026.48;1788013;79;21301;-79
2021/07/21 11:32:00;;;;;;;5.62;4.50;;;;;;;22.01;54.85;97024.09;1788342;79;20903;-79
2021/07/21 11:34:37;;;;;;;5.25;4.40;;;;;;;21.87;54.75;97021.73;1772495;80;20939;-78
2021/07/21 11:37:18;;;;;;;8.00;4.60;;;;;;;21.70;54.61;97018.77;1768867;80;21011;-78
2021/07/21 11:39:50;;;;;;;8.38;4.78;;;;;;;21.45;56.45;97029.65;1766555;80;20931;-78
2021/07/21 11:42:30;;;;;;;6.00;4.08;;;;;;;21.35;58.72;97026.30;1752958;80;20920;-78
2021/07/21 11:45:21;;;;;;;5.50;4.60;;;;;;;21.30;59.45;97023.53;1787691;79;20973;-78
2021/07/21 11:47:57;;;;;;;5.30;4.22;;;;;;;21.23;59.87;97021.00;1775303;79;20959;-78
2021/07/21 11:50:30;;;;;;;5.10;4.22;;;;;;;21.15;60.68;97025.84;1774538;80;20967;-78
2021/07/21 11:52:59;;;;;;;6.12;4.20;;;;;;;21.04;59.76;97024.03;1767865;80;21466;-78
2021/07/21 11:55:27;;;;;;;9.38;4.92;;;;;;;20.97;61.07;97023.63;1768935;80;20952;-78